sensor_id;sensor_type;location;lat;lon;timestamp;temperature;humidity
44775;DHT22;31340;51.402;0.016;2022-07-29T00:01:53;18.70;74.40
44775;DHT22;31340;51.402;0.016;2022-07-29T00:04:21;18.70;74.50
44775;DHT22;31340;51.402;0.016;2022-07-29T00:06:49;18.60;74.60
44775;DHT22;31340;51.402;0.016;2022-07-29T00:09:17;18.60;74.80
44775;DHT22;31340;51.402;0.016;2022-07-29T00:11:44;18.60;75.00
44775;DHT22;31340;51.402;0.016;2022-07-29T00:14:12;18.50;75.20
44775;DHT22;31340;51.402;0.016;2022-07-29T00:16:42;18.50;75.30
44775;DHT22;31340;51.402;0.016;2022-07-29T00:19:10;18.50;75.40
44775;DHT22;31340;51.402;0.016;2022-07-29T00:21:38;18.50;75.60
44775;DHT22;31340;51.402;0.016;2022-07-29T00:24:06;18.40;75.80
44775;DHT22;31340;51.402;0.016;2022-07-29T00:26:34;18.40;75.90
44775;DHT22;31340;51.402;0.016;2022-07-29T00:29:03;18.40;76.10
44775;DHT22;31340;51.402;0.016;2022-07-29T00:31:51;18.30;76.10
44775;DHT22;31340;51.402;0.016;2022-07-29T00:34:19;18.30;76.30
44775;DHT22;31340;51.402;0.016;2022-07-29T00:37:05;18.30;76.60
44775;DHT22;31340;51.402;0.016;2022-07-29T00:39:34;18.20;76.70
44775;DHT22;31340;51.402;0.016;2022-07-29T00:42:04;18.20;76.90
44775;DHT22;31340;51.402;0.016;2022-07-29T00:44:39;18.20;77.30
44775;DHT22;31340;51.402;0.016;2022-07-29T00:47:08;18.20;78.10
44775;DHT22;31340;51.402;0.016;2022-07-29T00:49:41;18.10;77.60
44775;DHT22;31340;51.402;0.016;2022-07-29T00:52:10;18.10;77.90
44775;DHT22;31340;51.402;0.016;2022-07-29T00:54:39;18.10;78.10
44775;DHT22;31340;51.402;0.016;2022-07-29T00:57:11;18.10;78.40
44775;DHT22;31340;51.402;0.016;2022-07-29T00:59:39;18.10;78.50
44775;DHT22;31340;51.402;0.016;2022-07-29T01:02:07;18.00;78.50
44775;DHT22;31340;51.402;0.016;2022-07-29T01:04:35;18.00;78.70
44775;DHT22;31340;51.402;0.016;2022-07-29T01:07:03;18.00;78.80
44775;DHT22;31340;51.402;0.016;2022-07-29T01:09:32;18.00;79.10
44775;DHT22;31340;51.402;0.016;2022-07-29T01:12:16;18.00;79.40
44775;DHT22;31340;51.402;0.016;2022-07-29T01:14:45;17.90;79.50
44775;DHT22;31340;51.402;0.016;2022-07-29T01:17:43;17.90;79.50
44775;DHT22;31340;51.402;0.016;2022-07-29T01:20:25;17.90;79.60
44775;DHT22;31340;51.402;0.016;2022-07-29T01:31:16;17.70;79.50
44775;DHT22;31340;51.402;0.016;2022-07-29T01:33:57;17.70;79.50
44775;DHT22;31340;51.402;0.016;2022-07-29T01:36:31;17.60;79.00
44775;DHT22;31340;51.402;0.016;2022-07-29T01:39:11;17.60;79.70
44775;DHT22;31340;51.402;0.016;2022-07-29T01:41:48;17.60;80.00
44775;DHT22;31340;51.402;0.016;2022-07-29T01:44:25;17.50;80.00
44775;DHT22;31340;51.402;0.016;2022-07-29T01:46:56;17.50;80.20
44775;DHT22;31340;51.402;0.016;2022-07-29T01:49:28;17.50;81.10
44775;DHT22;31340;51.402;0.016;2022-07-29T01:51:57;17.40;80.60
44775;DHT22;31340;51.402;0.016;2022-07-29T01:54:51;17.40;80.10
44775;DHT22;31340;51.402;0.016;2022-07-29T01:57:21;17.30;81.10
44775;DHT22;31340;51.402;0.016;2022-07-29T01:59:52;17.30;81.10
44775;DHT22;31340;51.402;0.016;2022-07-29T02:02:21;17.30;81.40
44775;DHT22;31340;51.402;0.016;2022-07-29T02:04:49;17.20;81.50
44775;DHT22;31340;51.402;0.016;2022-07-29T02:07:20;17.20;81.70
44775;DHT22;31340;51.402;0.016;2022-07-29T02:09:50;17.20;81.90
44775;DHT22;31340;51.402;0.016;2022-07-29T02:12:19;17.20;81.90
44775;DHT22;31340;51.402;0.016;2022-07-29T02:14:51;17.20;82.00
44775;DHT22;31340;51.402;0.016;2022-07-29T02:17:26;17.20;82.20
44775;DHT22;31340;51.402;0.016;2022-07-29T02:19:59;17.20;82.20
44775;DHT22;31340;51.402;0.016;2022-07-29T02:22:30;17.20;82.20
44775;DHT22;31340;51.402;0.016;2022-07-29T02:24:58;17.20;82.30
44775;DHT22;31340;51.402;0.016;2022-07-29T02:27:28;17.20;82.20
44775;DHT22;31340;51.402;0.016;2022-07-29T02:29:57;17.20;82.40
44775;DHT22;31340;51.402;0.016;2022-07-29T02:32:27;17.20;82.50
44775;DHT22;31340;51.402;0.016;2022-07-29T02:34:56;17.10;82.50
44775;DHT22;31340;51.402;0.016;2022-07-29T02:37:26;17.10;82.70
44775;DHT22;31340;51.402;0.016;2022-07-29T02:39:55;17.10;82.90
44775;DHT22;31340;51.402;0.016;2022-07-29T02:42:26;17.10;82.90
44775;DHT22;31340;51.402;0.016;2022-07-29T02:44:55;17.00;83.00
44775;DHT22;31340;51.402;0.016;2022-07-29T02:52:37;17.00;83.10
44775;DHT22;31340;51.402;0.016;2022-07-29T02:55:18;17.00;83.50
44775;DHT22;31340;51.402;0.016;2022-07-29T02:58:01;16.90;83.50
44775;DHT22;31340;51.402;0.016;2022-07-29T03:00:31;16.90;83.70
44775;DHT22;31340;51.402;0.016;2022-07-29T03:03:04;16.80;83.70
44775;DHT22;31340;51.402;0.016;2022-07-29T03:05:34;16.80;83.80
44775;DHT22;31340;51.402;0.016;2022-07-29T03:08:04;16.80;83.90
44775;DHT22;31340;51.402;0.016;2022-07-29T03:10:32;16.80;84.00
44775;DHT22;31340;51.402;0.016;2022-07-29T03:13:01;16.80;84.00
44775;DHT22;31340;51.402;0.016;2022-07-29T03:15:30;16.70;84.00
44775;DHT22;31340;51.402;0.016;2022-07-29T03:17:58;16.70;84.20
44775;DHT22;31340;51.402;0.016;2022-07-29T03:20:27;16.70;84.10
44775;DHT22;31340;51.402;0.016;2022-07-29T03:22:54;16.70;84.10
44775;DHT22;31340;51.402;0.016;2022-07-29T03:25:22;16.60;84.10
44775;DHT22;31340;51.402;0.016;2022-07-29T03:27:50;16.60;84.30
44775;DHT22;31340;51.402;0.016;2022-07-29T03:30:18;16.50;84.40
44775;DHT22;31340;51.402;0.016;2022-07-29T03:32:51;16.50;84.50
44775;DHT22;31340;51.402;0.016;2022-07-29T03:35:20;16.50;84.70
44775;DHT22;31340;51.402;0.016;2022-07-29T03:37:48;16.40;84.70
44775;DHT22;31340;51.402;0.016;2022-07-29T03:40:35;16.30;84.80
44775;DHT22;31340;51.402;0.016;2022-07-29T03:43:05;16.40;85.20
44775;DHT22;31340;51.402;0.016;2022-07-29T03:45:35;16.30;85.10
44775;DHT22;31340;51.402;0.016;2022-07-29T03:48:07;16.20;85.90
44775;DHT22;31340;51.402;0.016;2022-07-29T03:50:36;16.20;85.70
44775;DHT22;31340;51.402;0.016;2022-07-29T03:53:03;16.10;85.70
44775;DHT22;31340;51.402;0.016;2022-07-29T03:55:36;16.10;85.90
44775;DHT22;31340;51.402;0.016;2022-07-29T03:58:05;16.10;86.20
44775;DHT22;31340;51.402;0.016;2022-07-29T04:00:36;16.10;86.30
44775;DHT22;31340;51.402;0.016;2022-07-29T04:03:05;16.00;86.30
44775;DHT22;31340;51.402;0.016;2022-07-29T04:05:38;16.00;86.50
44775;DHT22;31340;51.402;0.016;2022-07-29T04:08:05;15.90;86.60
44775;DHT22;31340;51.402;0.016;2022-07-29T04:10:33;15.90;86.60
44775;DHT22;31340;51.402;0.016;2022-07-29T04:13:02;15.90;86.70
44775;DHT22;31340;51.402;0.016;2022-07-29T04:15:29;15.80;86.80
44775;DHT22;31340;51.402;0.016;2022-07-29T04:17:58;15.80;87.10
44775;DHT22;31340;51.402;0.016;2022-07-29T04:20:26;15.80;87.20
44775;DHT22;31340;51.402;0.016;2022-07-29T04:22:54;15.80;87.30
44775;DHT22;31340;51.402;0.016;2022-07-29T04:25:21;15.70;87.40
44775;DHT22;31340;51.402;0.016;2022-07-29T04:27:49;15.70;87.60
44775;DHT22;31340;51.402;0.016;2022-07-29T04:30:30;15.70;87.70
44775;DHT22;31340;51.402;0.016;2022-07-29T04:32:59;15.70;87.70
44775;DHT22;31340;51.402;0.016;2022-07-29T04:35:29;15.60;87.70
44775;DHT22;31340;51.402;0.016;2022-07-29T04:38:05;15.60;87.90
44775;DHT22;31340;51.402;0.016;2022-07-29T04:40:42;15.60;87.90
44775;DHT22;31340;51.402;0.016;2022-07-29T04:43:10;15.60;88.00
44775;DHT22;31340;51.402;0.016;2022-07-29T04:45:40;15.50;88.00
44775;DHT22;31340;51.402;0.016;2022-07-29T04:48:08;15.50;88.30
44775;DHT22;31340;51.402;0.016;2022-07-29T04:50:38;15.50;88.40
44775;DHT22;31340;51.402;0.016;2022-07-29T04:53:07;15.50;88.60
44775;DHT22;31340;51.402;0.016;2022-07-29T04:55:34;15.50;88.70
44775;DHT22;31340;51.402;0.016;2022-07-29T04:58:05;15.50;88.80
44775;DHT22;31340;51.402;0.016;2022-07-29T05:00:33;15.40;88.90
44775;DHT22;31340;51.402;0.016;2022-07-29T05:03:01;15.40;89.20
44775;DHT22;31340;51.402;0.016;2022-07-29T05:05:29;15.40;89.30
44775;DHT22;31340;51.402;0.016;2022-07-29T05:07:57;15.40;89.50
44775;DHT22;31340;51.402;0.016;2022-07-29T05:10:25;15.40;89.50
44775;DHT22;31340;51.402;0.016;2022-07-29T05:12:53;15.40;89.50
44775;DHT22;31340;51.402;0.016;2022-07-29T05:15:20;15.50;89.60
44775;DHT22;31340;51.402;0.016;2022-07-29T05:17:48;15.50;89.70
44775;DHT22;31340;51.402;0.016;2022-07-29T05:20:15;15.50;89.80
44775;DHT22;31340;51.402;0.016;2022-07-29T05:22:43;15.50;90.00
44775;DHT22;31340;51.402;0.016;2022-07-29T05:25:10;15.50;90.00
44775;DHT22;31340;51.402;0.016;2022-07-29T05:27:38;15.50;90.10
44775;DHT22;31340;51.402;0.016;2022-07-29T05:30:06;15.50;90.10
44775;DHT22;31340;51.402;0.016;2022-07-29T05:32:34;15.60;90.30
44775;DHT22;31340;51.402;0.016;2022-07-29T05:35:01;15.50;90.30
44775;DHT22;31340;51.402;0.016;2022-07-29T05:37:29;15.60;90.40
44775;DHT22;31340;51.402;0.016;2022-07-29T05:39:56;15.60;90.40
44775;DHT22;31340;51.402;0.016;2022-07-29T05:42:26;15.70;90.50
44775;DHT22;31340;51.402;0.016;2022-07-29T05:44:53;15.70;90.50
44775;DHT22;31340;51.402;0.016;2022-07-29T05:47:21;15.70;90.40
44775;DHT22;31340;51.402;0.016;2022-07-29T05:49:49;15.80;90.50
44775;DHT22;31340;51.402;0.016;2022-07-29T05:52:18;15.90;90.50
44775;DHT22;31340;51.402;0.016;2022-07-29T05:54:45;15.90;90.50
44775;DHT22;31340;51.402;0.016;2022-07-29T05:57:16;16.00;90.60
44775;DHT22;31340;51.402;0.016;2022-07-29T05:59:44;16.00;90.60
44775;DHT22;31340;51.402;0.016;2022-07-29T06:02:12;16.10;90.60
44775;DHT22;31340;51.402;0.016;2022-07-29T06:04:40;16.20;90.70
44775;DHT22;31340;51.402;0.016;2022-07-29T06:07:07;16.30;90.80
44775;DHT22;31340;51.402;0.016;2022-07-29T06:09:35;16.40;90.90
44775;DHT22;31340;51.402;0.016;2022-07-29T06:12:03;16.50;90.90
44775;DHT22;31340;51.402;0.016;2022-07-29T06:14:31;16.60;90.90
44775;DHT22;31340;51.402;0.016;2022-07-29T06:16:59;16.70;91.00
44775;DHT22;31340;51.402;0.016;2022-07-29T06:19:27;16.90;91.10
44775;DHT22;31340;51.402;0.016;2022-07-29T06:21:54;17.00;91.10
44775;DHT22;31340;51.402;0.016;2022-07-29T06:24:22;17.10;91.50
44775;DHT22;31340;51.402;0.016;2022-07-29T06:26:49;17.20;91.10
44775;DHT22;31340;51.402;0.016;2022-07-29T06:29:17;17.40;91.10
44775;DHT22;31340;51.402;0.016;2022-07-29T06:31:44;17.50;91.00
44775;DHT22;31340;51.402;0.016;2022-07-29T06:34:12;17.60;91.00
44775;DHT22;31340;51.402;0.016;2022-07-29T06:36:40;17.80;91.00
44775;DHT22;31340;51.402;0.016;2022-07-29T06:39:08;17.90;90.90
44775;DHT22;31340;51.402;0.016;2022-07-29T06:41:37;18.10;90.80
44775;DHT22;31340;51.402;0.016;2022-07-29T06:44:09;18.20;90.70
44775;DHT22;31340;51.402;0.016;2022-07-29T06:46:36;18.30;90.60
44775;DHT22;31340;51.402;0.016;2022-07-29T06:49:04;18.40;90.50
44775;DHT22;31340;51.402;0.016;2022-07-29T06:51:32;18.50;90.50
44775;DHT22;31340;51.402;0.016;2022-07-29T06:54:00;18.70;90.50
44775;DHT22;31340;51.402;0.016;2022-07-29T06:56:30;18.80;90.50
44775;DHT22;31340;51.402;0.016;2022-07-29T06:59:07;19.00;90.50
44775;DHT22;31340;51.402;0.016;2022-07-29T07:01:40;19.10;90.40
44775;DHT22;31340;51.402;0.016;2022-07-29T07:04:08;19.20;90.30
44775;DHT22;31340;51.402;0.016;2022-07-29T07:06:37;19.30;90.10
44775;DHT22;31340;51.402;0.016;2022-07-29T07:09:05;19.50;90.00
44775;DHT22;31340;51.402;0.016;2022-07-29T07:11:32;19.60;89.80
44775;DHT22;31340;51.402;0.016;2022-07-29T07:14:00;19.70;89.50
44775;DHT22;31340;51.402;0.016;2022-07-29T07:16:31;19.80;89.20
44775;DHT22;31340;51.402;0.016;2022-07-29T07:18:59;19.90;88.80
44775;DHT22;31340;51.402;0.016;2022-07-29T07:21:27;20.00;88.50
44775;DHT22;31340;51.402;0.016;2022-07-29T07:23:58;20.20;88.40
44775;DHT22;31340;51.402;0.016;2022-07-29T07:26:26;20.30;88.00
44775;DHT22;31340;51.402;0.016;2022-07-29T07:28:54;20.40;88.40
44775;DHT22;31340;51.402;0.016;2022-07-29T07:31:22;20.50;87.30
44775;DHT22;31340;51.402;0.016;2022-07-29T07:33:49;20.60;87.10
44775;DHT22;31340;51.402;0.016;2022-07-29T07:36:17;20.60;86.70
44775;DHT22;31340;51.402;0.016;2022-07-29T07:38:44;20.70;86.40
44775;DHT22;31340;51.402;0.016;2022-07-29T07:41:12;20.80;86.20
44775;DHT22;31340;51.402;0.016;2022-07-29T07:43:40;20.80;85.80
44775;DHT22;31340;51.402;0.016;2022-07-29T07:46:07;20.90;85.60
44775;DHT22;31340;51.402;0.016;2022-07-29T07:48:35;20.90;85.40
44775;DHT22;31340;51.402;0.016;2022-07-29T07:51:03;20.90;85.40
44775;DHT22;31340;51.402;0.016;2022-07-29T07:53:31;21.00;85.40
44775;DHT22;31340;51.402;0.016;2022-07-29T07:55:59;21.00;85.40
44775;DHT22;31340;51.402;0.016;2022-07-29T07:58:38;21.00;86.10
44775;DHT22;31340;51.402;0.016;2022-07-29T08:01:06;21.00;85.30
44775;DHT22;31340;51.402;0.016;2022-07-29T08:03:34;21.10;85.20
44775;DHT22;31340;51.402;0.016;2022-07-29T08:06:03;21.10;85.20
44775;DHT22;31340;51.402;0.016;2022-07-29T08:08:31;21.10;84.90
44775;DHT22;31340;51.402;0.016;2022-07-29T08:10:58;21.10;84.30
44775;DHT22;31340;51.402;0.016;2022-07-29T08:13:32;21.20;83.90
44775;DHT22;31340;51.402;0.016;2022-07-29T08:16:00;21.20;83.60
44775;DHT22;31340;51.402;0.016;2022-07-29T08:18:30;21.20;83.00
44775;DHT22;31340;51.402;0.016;2022-07-29T08:20:58;21.30;81.70
44775;DHT22;31340;51.402;0.016;2022-07-29T08:23:26;21.30;81.10
44775;DHT22;31340;51.402;0.016;2022-07-29T08:26:13;21.40;79.90
44775;DHT22;31340;51.402;0.016;2022-07-29T08:28:42;21.40;78.50
44775;DHT22;31340;51.402;0.016;2022-07-29T08:31:16;21.40;77.90
44775;DHT22;31340;51.402;0.016;2022-07-29T08:33:44;21.50;77.70
44775;DHT22;31340;51.402;0.016;2022-07-29T08:36:11;21.50;77.50
44775;DHT22;31340;51.402;0.016;2022-07-29T08:38:40;21.60;77.30
44775;DHT22;31340;51.402;0.016;2022-07-29T08:41:07;21.60;77.00
44775;DHT22;31340;51.402;0.016;2022-07-29T08:43:35;21.70;77.10
44775;DHT22;31340;51.402;0.016;2022-07-29T08:46:05;21.70;77.30
44775;DHT22;31340;51.402;0.016;2022-07-29T08:48:33;21.80;77.30
44775;DHT22;31340;51.402;0.016;2022-07-29T08:51:02;21.80;76.90
44775;DHT22;31340;51.402;0.016;2022-07-29T08:53:31;21.90;75.60
44775;DHT22;31340;51.402;0.016;2022-07-29T08:55:59;22.00;74.90
44775;DHT22;31340;51.402;0.016;2022-07-29T08:58:32;22.10;74.20
44775;DHT22;31340;51.402;0.016;2022-07-29T09:01:04;22.10;73.10
44775;DHT22;31340;51.402;0.016;2022-07-29T09:03:36;22.20;71.60
44775;DHT22;31340;51.402;0.016;2022-07-29T09:06:04;22.30;69.60
44775;DHT22;31340;51.402;0.016;2022-07-29T09:08:33;22.30;69.30
44775;DHT22;31340;51.402;0.016;2022-07-29T09:11:01;22.40;69.20
44775;DHT22;31340;51.402;0.016;2022-07-29T09:13:31;22.50;68.70
44775;DHT22;31340;51.402;0.016;2022-07-29T09:15:59;22.50;68.30
44775;DHT22;31340;51.402;0.016;2022-07-29T09:18:45;22.60;67.80
44775;DHT22;31340;51.402;0.016;2022-07-29T09:21:14;22.70;67.50
44775;DHT22;31340;51.402;0.016;2022-07-29T09:24:12;22.80;67.60
44775;DHT22;31340;51.402;0.016;2022-07-29T09:26:41;22.80;68.00
44775;DHT22;31340;51.402;0.016;2022-07-29T09:29:19;22.90;68.50
44775;DHT22;31340;51.402;0.016;2022-07-29T09:31:52;23.00;68.20
44775;DHT22;31340;51.402;0.016;2022-07-29T09:34:25;23.10;68.00
44775;DHT22;31340;51.402;0.016;2022-07-29T09:36:54;23.20;68.10
44775;DHT22;31340;51.402;0.016;2022-07-29T09:42:04;23.40;67.90
44775;DHT22;31340;51.402;0.016;2022-07-29T09:44:49;23.40;67.60
44775;DHT22;31340;51.402;0.016;2022-07-29T09:47:18;23.60;66.90
44775;DHT22;31340;51.402;0.016;2022-07-29T09:49:57;23.70;67.10
44775;DHT22;31340;51.402;0.016;2022-07-29T09:52:26;23.80;66.30
44775;DHT22;31340;51.402;0.016;2022-07-29T09:55:08;23.80;65.90
44775;DHT22;31340;51.402;0.016;2022-07-29T09:57:36;24.00;65.10
44775;DHT22;31340;51.402;0.016;2022-07-29T10:00:05;24.10;64.50
44775;DHT22;31340;51.402;0.016;2022-07-29T10:02:42;24.20;64.10
44775;DHT22;31340;51.402;0.016;2022-07-29T10:05:22;24.30;63.60
44775;DHT22;31340;51.402;0.016;2022-07-29T10:07:55;24.40;63.00
44775;DHT22;31340;51.402;0.016;2022-07-29T10:10:32;24.60;62.40
44775;DHT22;31340;51.402;0.016;2022-07-29T10:13:11;24.70;61.50
44775;DHT22;31340;51.402;0.016;2022-07-29T10:15:43;24.90;61.00
44775;DHT22;31340;51.402;0.016;2022-07-29T10:18:14;25.10;60.80
44775;DHT22;31340;51.402;0.016;2022-07-29T10:20:45;25.30;59.50
44775;DHT22;31340;51.402;0.016;2022-07-29T10:23:12;25.50;58.60
44775;DHT22;31340;51.402;0.016;2022-07-29T10:25:40;25.80;58.30
44775;DHT22;31340;51.402;0.016;2022-07-29T10:28:12;26.00;57.70
44775;DHT22;31340;51.402;0.016;2022-07-29T10:30:44;26.30;57.00
44775;DHT22;31340;51.402;0.016;2022-07-29T10:36:11;26.90;55.10
44775;DHT22;31340;51.402;0.016;2022-07-29T10:38:59;27.20;54.00
44775;DHT22;31340;51.402;0.016;2022-07-29T10:44:32;27.80;52.50
44775;DHT22;31340;51.402;0.016;2022-07-29T10:47:01;28.00;52.60
44775;DHT22;31340;51.402;0.016;2022-07-29T10:49:28;28.30;51.70
44775;DHT22;31340;51.402;0.016;2022-07-29T10:57:13;29.00;49.30
44775;DHT22;31340;51.402;0.016;2022-07-29T10:59:43;29.30;48.20
44775;DHT22;31340;51.402;0.016;2022-07-29T11:05:13;29.70;47.10
44775;DHT22;31340;51.402;0.016;2022-07-29T11:10:48;30.00;46.50
44775;DHT22;31340;51.402;0.016;2022-07-29T11:16:20;30.30;45.30
44775;DHT22;31340;51.402;0.016;2022-07-29T11:21:44;30.90;42.40
44775;DHT22;31340;51.402;0.016;2022-07-29T11:24:32;31.10;42.30
44775;DHT22;31340;51.402;0.016;2022-07-29T11:29:57;31.50;41.30
44775;DHT22;31340;51.402;0.016;2022-07-29T11:32:40;31.70;40.80
44775;DHT22;31340;51.402;0.016;2022-07-29T11:37:46;32.20;39.20
44775;DHT22;31340;51.402;0.016;2022-07-29T11:40:22;32.30;38.50
44775;DHT22;31340;51.402;0.016;2022-07-29T11:42:50;32.40;38.00
44775;DHT22;31340;51.402;0.016;2022-07-29T11:45:20;32.40;38.00
44775;DHT22;31340;51.402;0.016;2022-07-29T11:48:15;32.50;37.80
44775;DHT22;31340;51.402;0.016;2022-07-29T11:50:56;32.60;37.60
44775;DHT22;31340;51.402;0.016;2022-07-29T11:53:24;32.80;37.80
44775;DHT22;31340;51.402;0.016;2022-07-29T11:56:13;33.00;37.30
44775;DHT22;31340;51.402;0.016;2022-07-29T11:58:44;33.20;36.80
44775;DHT22;31340;51.402;0.016;2022-07-29T12:01:17;33.40;36.40
44775;DHT22;31340;51.402;0.016;2022-07-29T12:03:44;33.60;35.70
44775;DHT22;31340;51.402;0.016;2022-07-29T12:06:13;33.80;35.60
44775;DHT22;31340;51.402;0.016;2022-07-29T12:09:07;34.00;35.20
44775;DHT22;31340;51.402;0.016;2022-07-29T12:11:40;34.30;34.50
44775;DHT22;31340;51.402;0.016;2022-07-29T12:14:33;34.40;34.50
44775;DHT22;31340;51.402;0.016;2022-07-29T12:17:01;34.70;33.60
44775;DHT22;31340;51.402;0.016;2022-07-29T12:19:42;34.70;33.50
44775;DHT22;31340;51.402;0.016;2022-07-29T12:22:11;34.90;32.60
44775;DHT22;31340;51.402;0.016;2022-07-29T12:24:45;35.00;32.70
44775;DHT22;31340;51.402;0.016;2022-07-29T12:27:17;35.10;32.00
44775;DHT22;31340;51.402;0.016;2022-07-29T12:35:15;35.60;31.50
44775;DHT22;31340;51.402;0.016;2022-07-29T12:37:43;35.70;31.80
44775;DHT22;31340;51.402;0.016;2022-07-29T12:40:14;35.80;31.50
44775;DHT22;31340;51.402;0.016;2022-07-29T12:45:48;36.00;30.10
44775;DHT22;31340;51.402;0.016;2022-07-29T12:48:17;36.00;30.20
44775;DHT22;31340;51.402;0.016;2022-07-29T12:51:01;36.00;30.00
44775;DHT22;31340;51.402;0.016;2022-07-29T12:53:30;36.00;30.30
44775;DHT22;31340;51.402;0.016;2022-07-29T12:55:58;36.00;30.40
44775;DHT22;31340;51.402;0.016;2022-07-29T12:58:42;36.10;30.10
44775;DHT22;31340;51.402;0.016;2022-07-29T13:01:16;36.30;29.70
44775;DHT22;31340;51.402;0.016;2022-07-29T13:03:54;36.30;29.70
44775;DHT22;31340;51.402;0.016;2022-07-29T13:06:39;36.30;29.60
44775;DHT22;31340;51.402;0.016;2022-07-29T13:11:37;36.30;29.50
44775;DHT22;31340;51.402;0.016;2022-07-29T13:14:07;36.30;29.60
44775;DHT22;31340;51.402;0.016;2022-07-29T13:16:38;36.30;29.60
44775;DHT22;31340;51.402;0.016;2022-07-29T13:22:04;36.20;29.60
44775;DHT22;31340;51.402;0.016;2022-07-29T13:24:32;35.90;29.80
44775;DHT22;31340;51.402;0.016;2022-07-29T13:27:00;35.70;29.80
44775;DHT22;31340;51.402;0.016;2022-07-29T13:29:31;35.50;29.90
44775;DHT22;31340;51.402;0.016;2022-07-29T13:31:59;35.30;30.00
44775;DHT22;31340;51.402;0.016;2022-07-29T13:34:27;35.30;30.10
44775;DHT22;31340;51.402;0.016;2022-07-29T13:36:55;35.10;30.00
44775;DHT22;31340;51.402;0.016;2022-07-29T13:39:22;35.00;30.00
44775;DHT22;31340;51.402;0.016;2022-07-29T13:41:51;35.00;30.00
44775;DHT22;31340;51.402;0.016;2022-07-29T13:44:18;35.20;30.00
44775;DHT22;31340;51.402;0.016;2022-07-29T13:46:46;35.40;30.00
44775;DHT22;31340;51.402;0.016;2022-07-29T13:49:13;35.50;29.80
44775;DHT22;31340;51.402;0.016;2022-07-29T13:51:41;35.80;29.60
44775;DHT22;31340;51.402;0.016;2022-07-29T13:54:08;36.10;29.70
44775;DHT22;31340;51.402;0.016;2022-07-29T13:56:36;36.40;29.40
44775;DHT22;31340;51.402;0.016;2022-07-29T13:59:04;36.70;29.20
44775;DHT22;31340;51.402;0.016;2022-07-29T14:01:31;37.00;28.80
44775;DHT22;31340;51.402;0.016;2022-07-29T14:03:59;37.30;28.30
44775;DHT22;31340;51.402;0.016;2022-07-29T14:06:27;37.60;28.10
44775;DHT22;31340;51.402;0.016;2022-07-29T14:08:56;37.70;27.80
44775;DHT22;31340;51.402;0.016;2022-07-29T14:11:23;37.80;27.60
44775;DHT22;31340;51.402;0.016;2022-07-29T14:13:51;37.80;27.20
44775;DHT22;31340;51.402;0.016;2022-07-29T14:16:19;37.80;27.10
44775;DHT22;31340;51.402;0.016;2022-07-29T14:18:47;37.70;26.90
44775;DHT22;31340;51.402;0.016;2022-07-29T14:21:14;37.60;26.80
44775;DHT22;31340;51.402;0.016;2022-07-29T14:23:42;37.50;26.80
44775;DHT22;31340;51.402;0.016;2022-07-29T14:26:10;37.40;26.60
44775;DHT22;31340;51.402;0.016;2022-07-29T14:28:42;37.30;26.70
44775;DHT22;31340;51.402;0.016;2022-07-29T14:31:10;37.20;26.90
44775;DHT22;31340;51.402;0.016;2022-07-29T14:33:38;37.20;27.30
44775;DHT22;31340;51.402;0.016;2022-07-29T14:36:06;37.20;27.20
44775;DHT22;31340;51.402;0.016;2022-07-29T14:38:33;37.30;27.20
44775;DHT22;31340;51.402;0.016;2022-07-29T14:41:01;37.40;26.90
44775;DHT22;31340;51.402;0.016;2022-07-29T14:43:29;37.60;26.80
44775;DHT22;31340;51.402;0.016;2022-07-29T14:45:56;37.80;26.40
44775;DHT22;31340;51.402;0.016;2022-07-29T14:48:31;37.90;26.30
44775;DHT22;31340;51.402;0.016;2022-07-29T14:50:59;38.10;26.10
44775;DHT22;31340;51.402;0.016;2022-07-29T14:53:31;38.30;26.30
44775;DHT22;31340;51.402;0.016;2022-07-29T14:55:59;38.40;25.90
44775;DHT22;31340;51.402;0.016;2022-07-29T14:58:46;38.60;25.70
44775;DHT22;31340;51.402;0.016;2022-07-29T15:01:18;38.80;25.80
44775;DHT22;31340;51.402;0.016;2022-07-29T15:03:46;39.00;25.90
44775;DHT22;31340;51.402;0.016;2022-07-29T15:06:13;39.10;25.50
44775;DHT22;31340;51.402;0.016;2022-07-29T15:08:40;39.30;25.60
44775;DHT22;31340;51.402;0.016;2022-07-29T15:11:08;39.50;25.40
44775;DHT22;31340;51.402;0.016;2022-07-29T15:13:36;39.60;25.20
44775;DHT22;31340;51.402;0.016;2022-07-29T15:16:05;39.60;25.00
44775;DHT22;31340;51.402;0.016;2022-07-29T15:18:33;39.60;24.70
44775;DHT22;31340;51.402;0.016;2022-07-29T15:21:00;39.70;24.70
44775;DHT22;31340;51.402;0.016;2022-07-29T15:23:29;39.70;24.60
44775;DHT22;31340;51.402;0.016;2022-07-29T15:25:57;39.70;24.60
44775;DHT22;31340;51.402;0.016;2022-07-29T15:28:24;39.60;24.40
44775;DHT22;31340;51.402;0.016;2022-07-29T15:30:52;39.50;24.40
44775;DHT22;31340;51.402;0.016;2022-07-29T15:33:20;39.30;24.50
44775;DHT22;31340;51.402;0.016;2022-07-29T15:35:47;39.10;24.50
44775;DHT22;31340;51.402;0.016;2022-07-29T15:38:16;38.90;24.80
44775;DHT22;31340;51.402;0.016;2022-07-29T15:40:43;38.70;25.00
44775;DHT22;31340;51.402;0.016;2022-07-29T15:43:12;38.50;25.00
44775;DHT22;31340;51.402;0.016;2022-07-29T15:45:41;38.20;25.30
44775;DHT22;31340;51.402;0.016;2022-07-29T15:48:29;38.00;25.30
44775;DHT22;31340;51.402;0.016;2022-07-29T15:50:58;37.80;25.40
44775;DHT22;31340;51.402;0.016;2022-07-29T15:53:26;37.50;25.80
44775;DHT22;31340;51.402;0.016;2022-07-29T15:55:54;37.20;26.30
44775;DHT22;31340;51.402;0.016;2022-07-29T15:58:21;37.00;26.70
44775;DHT22;31340;51.402;0.016;2022-07-29T16:00:49;36.70;26.90
44775;DHT22;31340;51.402;0.016;2022-07-29T16:03:16;36.40;27.20
44775;DHT22;31340;51.402;0.016;2022-07-29T16:05:44;36.10;27.00
44775;DHT22;31340;51.402;0.016;2022-07-29T16:08:12;35.80;27.20
44775;DHT22;31340;51.402;0.016;2022-07-29T16:10:39;35.50;28.10
44775;DHT22;31340;51.402;0.016;2022-07-29T16:13:07;35.20;27.60
44775;DHT22;31340;51.402;0.016;2022-07-29T16:15:35;35.00;27.70
44775;DHT22;31340;51.402;0.016;2022-07-29T16:18:02;34.70;27.80
44775;DHT22;31340;51.402;0.016;2022-07-29T16:20:30;34.40;28.00
44775;DHT22;31340;51.402;0.016;2022-07-29T16:22:59;34.10;28.40
44775;DHT22;31340;51.402;0.016;2022-07-29T16:25:27;33.90;28.90
44775;DHT22;31340;51.402;0.016;2022-07-29T16:28:15;33.60;29.20
44775;DHT22;31340;51.402;0.016;2022-07-29T16:30:43;33.40;29.30
44775;DHT22;31340;51.402;0.016;2022-07-29T16:33:10;33.10;29.50
44775;DHT22;31340;51.402;0.016;2022-07-29T16:35:38;32.90;29.60
44775;DHT22;31340;51.402;0.016;2022-07-29T16:38:07;32.70;29.80
44775;DHT22;31340;51.402;0.016;2022-07-29T16:40:34;32.50;30.00
44775;DHT22;31340;51.402;0.016;2022-07-29T16:43:02;32.20;30.20
44775;DHT22;31340;51.402;0.016;2022-07-29T16:45:29;32.10;30.60
44775;DHT22;31340;51.402;0.016;2022-07-29T16:48:13;32.00;30.70
44775;DHT22;31340;51.402;0.016;2022-07-29T16:50:44;31.80;31.00